sensor_id;sensor_type;location;lat;lon;timestamp;P1;durP1;ratioP1;P2;durP2;ratioP2
7939;SDS011;4015;48.888;9.226;2023-12-29T00:01:11;1.13;;;1.02;;
7939;SDS011;4015;48.888;9.226;2023-12-29T00:03:36;1.08;;;0.90;;
7939;SDS011;4015;48.888;9.226;2023-12-29T00:06:02;1.10;;;1.00;;
7939;SDS011;4015;48.888;9.226;2023-12-29T00:08:28;0.80;;;0.80;;
7939;SDS011;4015;48.888;9.226;2023-12-29T00:10:53;1.25;;;1.10;;
7939;SDS011;4015;48.888;9.226;2023-12-29T00:13:19;1.10;;;1.00;;
7939;SDS011;4015;48.888;9.226;2023-12-29T00:15:48;1.00;;;0.90;;
7939;SDS011;4015;48.888;9.226;2023-12-29T00:18:16;1.05;;;0.82;;
7939;SDS011;4015;48.888;9.226;2023-12-29T00:20:41;0.98;;;0.90;;
7939;SDS011;4015;48.888;9.226;2023-12-29T00:23:07;1.10;;;1.00;;
7939;SDS011;4015;48.888;9.226;2023-12-29T00:25:32;1.10;;;1.00;;
7939;SDS011;4015;48.888;9.226;2023-12-29T00:27:57;1.13;;;1.02;;
7939;SDS011;4015;48.888;9.226;2023-12-29T00:30:23;1.10;;;1.00;;
7939;SDS011;4015;48.888;9.226;2023-12-29T00:32:48;0.80;;;0.80;;
7939;SDS011;4015;48.888;9.226;2023-12-29T00:35:13;1.08;;;0.98;;
7939;SDS011;4015;48.888;9.226;2023-12-29T00:37:39;1.10;;;1.00;;
7939;SDS011;4015;48.888;9.226;2023-12-29T00:40:05;1.20;;;1.10;;
7939;SDS011;4015;48.888;9.226;2023-12-29T00:42:31;1.13;;;1.02;;
7939;SDS011;4015;48.888;9.226;2023-12-29T00:44:56;1.30;;;1.20;;
7939;SDS011;4015;48.888;9.226;2023-12-29T00:47:22;1.00;;;0.88;;
7939;SDS011;4015;48.888;9.226;2023-12-29T00:49:48;1.38;;;1.20;;
7939;SDS011;4015;48.888;9.226;2023-12-29T00:52:13;1.10;;;1.00;;
7939;SDS011;4015;48.888;9.226;2023-12-29T00:54:40;0.90;;;0.90;;
7939;SDS011;4015;48.888;9.226;2023-12-29T00:57:05;1.17;;;1.00;;
7939;SDS011;4015;48.888;9.226;2023-12-29T00:59:30;1.00;;;0.90;;
7939;SDS011;4015;48.888;9.226;2023-12-29T01:01:55;0.98;;;0.90;;
7939;SDS011;4015;48.888;9.226;2023-12-29T01:04:21;1.10;;;0.98;;
7939;SDS011;4015;48.888;9.226;2023-12-29T01:06:46;1.38;;;1.27;;
7939;SDS011;4015;48.888;9.226;2023-12-29T01:09:12;1.17;;;0.90;;
7939;SDS011;4015;48.888;9.226;2023-12-29T01:11:37;0.85;;;0.85;;
7939;SDS011;4015;48.888;9.226;2023-12-29T01:14:02;1.30;;;1.10;;
7939;SDS011;4015;48.888;9.226;2023-12-29T01:16:28;1.05;;;0.95;;
7939;SDS011;4015;48.888;9.226;2023-12-29T01:18:53;1.30;;;1.20;;
7939;SDS011;4015;48.888;9.226;2023-12-29T01:21:18;1.10;;;1.00;;
7939;SDS011;4015;48.888;9.226;2023-12-29T01:23:44;1.08;;;0.98;;
7939;SDS011;4015;48.888;9.226;2023-12-29T01:26:09;1.05;;;0.80;;
7939;SDS011;4015;48.888;9.226;2023-12-29T01:28:34;1.10;;;0.95;;
7939;SDS011;4015;48.888;9.226;2023-12-29T01:30:59;1.00;;;0.90;;
7939;SDS011;4015;48.888;9.226;2023-12-29T01:33:25;0.93;;;0.90;;
7939;SDS011;4015;48.888;9.226;2023-12-29T01:35:50;1.00;;;0.90;;
7939;SDS011;4015;48.888;9.226;2023-12-29T01:38:16;1.20;;;1.10;;
7939;SDS011;4015;48.888;9.226;2023-12-29T01:40:44;1.00;;;0.90;;
7939;SDS011;4015;48.888;9.226;2023-12-29T01:43:10;1.05;;;0.95;;
7939;SDS011;4015;48.888;9.226;2023-12-29T01:45:36;1.08;;;0.98;;
7939;SDS011;4015;48.888;9.226;2023-12-29T01:48:01;1.10;;;0.90;;
7939;SDS011;4015;48.888;9.226;2023-12-29T01:50:27;1.10;;;0.88;;
7939;SDS011;4015;48.888;9.226;2023-12-29T01:52:53;0.82;;;0.82;;
7939;SDS011;4015;48.888;9.226;2023-12-29T01:55:19;1.00;;;0.95;;
7939;SDS011;4015;48.888;9.226;2023-12-29T01:57:48;1.05;;;0.95;;
7939;SDS011;4015;48.888;9.226;2023-12-29T02:00:14;0.88;;;0.88;;
7939;SDS011;4015;48.888;9.226;2023-12-29T02:02:41;1.30;;;1.10;;
7939;SDS011;4015;48.888;9.226;2023-12-29T02:05:07;1.17;;;1.08;;
7939;SDS011;4015;48.888;9.226;2023-12-29T02:07:32;1.00;;;0.90;;
7939;SDS011;4015;48.888;9.226;2023-12-29T02:09:58;1.42;;;0.88;;
7939;SDS011;4015;48.888;9.226;2023-12-29T02:12:24;1.20;;;0.90;;
7939;SDS011;4015;48.888;9.226;2023-12-29T02:14:50;1.00;;;0.80;;
7939;SDS011;4015;48.888;9.226;2023-12-29T02:17:19;1.52;;;0.90;;
7939;SDS011;4015;48.888;9.226;2023-12-29T02:19:50;0.80;;;0.80;;
7939;SDS011;4015;48.888;9.226;2023-12-29T02:22:16;1.15;;;1.00;;
7939;SDS011;4015;48.888;9.226;2023-12-29T02:24:51;1.20;;;0.98;;
7939;SDS011;4015;48.888;9.226;2023-12-29T02:27:29;0.80;;;0.80;;
7939;SDS011;4015;48.888;9.226;2023-12-29T02:32:44;0.80;;;0.80;;
7939;SDS011;4015;48.888;9.226;2023-12-29T02:35:19;1.10;;;1.00;;
7939;SDS011;4015;48.888;9.226;2023-12-29T02:37:48;1.00;;;0.88;;
7939;SDS011;4015;48.888;9.226;2023-12-29T02:40:14;1.00;;;0.90;;
7939;SDS011;4015;48.888;9.226;2023-12-29T02:42:44;1.25;;;0.70;;
7939;SDS011;4015;48.888;9.226;2023-12-29T02:45:11;1.05;;;0.80;;
7939;SDS011;4015;48.888;9.226;2023-12-29T02:47:36;1.23;;;0.90;;
7939;SDS011;4015;48.888;9.226;2023-12-29T02:50:01;1.10;;;1.00;;
7939;SDS011;4015;48.888;9.226;2023-12-29T02:52:27;0.98;;;0.88;;
7939;SDS011;4015;48.888;9.226;2023-12-29T02:54:52;1.20;;;1.10;;
7939;SDS011;4015;48.888;9.226;2023-12-29T02:57:17;1.05;;;1.00;;
7939;SDS011;4015;48.888;9.226;2023-12-29T02:59:43;1.15;;;1.05;;
7939;SDS011;4015;48.888;9.226;2023-12-29T03:02:08;1.10;;;1.00;;
7939;SDS011;4015;48.888;9.226;2023-12-29T03:04:33;1.10;;;1.00;;
7939;SDS011;4015;48.888;9.226;2023-12-29T03:06:59;0.90;;;0.90;;
7939;SDS011;4015;48.888;9.226;2023-12-29T03:09:24;0.88;;;0.80;;
7939;SDS011;4015;48.888;9.226;2023-12-29T03:11:49;1.58;;;0.80;;
7939;SDS011;4015;48.888;9.226;2023-12-29T03:14:15;1.08;;;0.98;;
7939;SDS011;4015;48.888;9.226;2023-12-29T03:16:40;1.08;;;0.98;;
7939;SDS011;4015;48.888;9.226;2023-12-29T03:19:05;1.00;;;0.90;;
7939;SDS011;4015;48.888;9.226;2023-12-29T03:21:31;1.10;;;1.00;;
7939;SDS011;4015;48.888;9.226;2023-12-29T03:23:56;1.00;;;0.90;;
7939;SDS011;4015;48.888;9.226;2023-12-29T03:26:21;1.17;;;1.08;;
7939;SDS011;4015;48.888;9.226;2023-12-29T03:28:47;1.38;;;0.90;;
7939;SDS011;4015;48.888;9.226;2023-12-29T03:31:13;1.10;;;1.00;;
7939;SDS011;4015;48.888;9.226;2023-12-29T03:33:38;0.90;;;0.77;;
7939;SDS011;4015;48.888;9.226;2023-12-29T03:36:04;1.15;;;1.05;;
7939;SDS011;4015;48.888;9.226;2023-12-29T03:38:30;1.10;;;1.00;;
7939;SDS011;4015;48.888;9.226;2023-12-29T03:40:57;1.00;;;1.00;;
7939;SDS011;4015;48.888;9.226;2023-12-29T03:43:22;1.17;;;0.85;;
7939;SDS011;4015;48.888;9.226;2023-12-29T03:45:47;0.80;;;0.80;;
7939;SDS011;4015;48.888;9.226;2023-12-29T03:48:12;1.38;;;1.20;;
7939;SDS011;4015;48.888;9.226;2023-12-29T03:50:38;0.90;;;0.85;;
7939;SDS011;4015;48.888;9.226;2023-12-29T03:53:04;0.98;;;0.88;;
7939;SDS011;4015;48.888;9.226;2023-12-29T03:55:29;1.05;;;0.93;;
7939;SDS011;4015;48.888;9.226;2023-12-29T03:57:54;1.17;;;0.90;;
7939;SDS011;4015;48.888;9.226;2023-12-29T04:00:19;0.80;;;0.80;;
7939;SDS011;4015;48.888;9.226;2023-12-29T04:02:45;1.30;;;1.20;;
7939;SDS011;4015;48.888;9.226;2023-12-29T04:05:10;1.20;;;1.10;;
7939;SDS011;4015;48.888;9.226;2023-12-29T04:07:36;0.80;;;0.80;;
7939;SDS011;4015;48.888;9.226;2023-12-29T04:10:03;0.90;;;0.90;;
7939;SDS011;4015;48.888;9.226;2023-12-29T04:12:29;1.33;;;1.10;;
7939;SDS011;4015;48.888;9.226;2023-12-29T04:14:54;0.93;;;0.93;;
7939;SDS011;4015;48.888;9.226;2023-12-29T04:17:20;1.00;;;1.00;;
7939;SDS011;4015;48.888;9.226;2023-12-29T04:19:45;0.90;;;0.90;;
7939;SDS011;4015;48.888;9.226;2023-12-29T04:22:10;1.08;;;0.70;;
7939;SDS011;4015;48.888;9.226;2023-12-29T04:24:37;0.93;;;0.93;;
7939;SDS011;4015;48.888;9.226;2023-12-29T04:27:03;0.85;;;0.85;;
7939;SDS011;4015;48.888;9.226;2023-12-29T04:29:28;1.00;;;0.90;;
7939;SDS011;4015;48.888;9.226;2023-12-29T04:31:54;0.93;;;0.88;;
7939;SDS011;4015;48.888;9.226;2023-12-29T04:34:19;1.08;;;0.90;;
7939;SDS011;4015;48.888;9.226;2023-12-29T04:36:44;0.95;;;0.93;;
7939;SDS011;4015;48.888;9.226;2023-12-29T04:39:10;0.90;;;0.90;;
7939;SDS011;4015;48.888;9.226;2023-12-29T04:41:35;1.20;;;1.10;;
7939;SDS011;4015;48.888;9.226;2023-12-29T04:44:01;1.15;;;1.05;;
7939;SDS011;4015;48.888;9.226;2023-12-29T04:46:26;1.10;;;1.00;;
7939;SDS011;4015;48.888;9.226;2023-12-29T04:48:51;0.98;;;0.98;;
7939;SDS011;4015;48.888;9.226;2023-12-29T04:51:16;2.08;;;1.17;;
7939;SDS011;4015;48.888;9.226;2023-12-29T04:53:42;1.10;;;1.00;;
7939;SDS011;4015;48.888;9.226;2023-12-29T04:56:07;1.10;;;0.90;;
7939;SDS011;4015;48.888;9.226;2023-12-29T04:58:32;1.70;;;1.10;;
7939;SDS011;4015;48.888;9.226;2023-12-29T05:00:57;1.00;;;0.90;;
7939;SDS011;4015;48.888;9.226;2023-12-29T05:03:23;1.13;;;1.00;;
7939;SDS011;4015;48.888;9.226;2023-12-29T05:05:48;1.27;;;1.17;;
7939;SDS011;4015;48.888;9.226;2023-12-29T05:08:13;1.17;;;0.90;;
7939;SDS011;4015;48.888;9.226;2023-12-29T05:10:39;1.10;;;1.00;;
7939;SDS011;4015;48.888;9.226;2023-12-29T05:13:04;1.35;;;1.25;;
7939;SDS011;4015;48.888;9.226;2023-12-29T05:15:29;0.93;;;0.85;;
7939;SDS011;4015;48.888;9.226;2023-12-29T05:17:54;0.80;;;0.80;;
7939;SDS011;4015;48.888;9.226;2023-12-29T05:20:20;1.20;;;1.10;;
7939;SDS011;4015;48.888;9.226;2023-12-29T05:22:45;0.80;;;0.80;;
7939;SDS011;4015;48.888;9.226;2023-12-29T05:25:10;0.90;;;0.80;;
7939;SDS011;4015;48.888;9.226;2023-12-29T05:27:36;1.10;;;1.00;;
7939;SDS011;4015;48.888;9.226;2023-12-29T05:30:01;1.00;;;0.90;;
7939;SDS011;4015;48.888;9.226;2023-12-29T05:32:27;1.15;;;1.05;;
7939;SDS011;4015;48.888;9.226;2023-12-29T05:34:52;1.00;;;0.90;;
7939;SDS011;4015;48.888;9.226;2023-12-29T05:37:17;1.20;;;1.10;;
7939;SDS011;4015;48.888;9.226;2023-12-29T05:39:43;0.90;;;0.90;;
7939;SDS011;4015;48.888;9.226;2023-12-29T05:42:08;0.80;;;0.80;;
7939;SDS011;4015;48.888;9.226;2023-12-29T05:44:35;0.85;;;0.85;;
7939;SDS011;4015;48.888;9.226;2023-12-29T05:47:01;1.15;;;1.05;;
7939;SDS011;4015;48.888;9.226;2023-12-29T05:49:27;0.80;;;0.80;;
7939;SDS011;4015;48.888;9.226;2023-12-29T05:51:52;1.30;;;0.90;;
7939;SDS011;4015;48.888;9.226;2023-12-29T05:54:17;0.80;;;0.80;;
7939;SDS011;4015;48.888;9.226;2023-12-29T05:56:43;0.80;;;0.80;;
7939;SDS011;4015;48.888;9.226;2023-12-29T05:59:08;1.10;;;1.00;;
7939;SDS011;4015;48.888;9.226;2023-12-29T06:01:34;1.08;;;1.00;;
7939;SDS011;4015;48.888;9.226;2023-12-29T06:03:59;0.85;;;0.85;;
7939;SDS011;4015;48.888;9.226;2023-12-29T06:06:24;0.90;;;0.80;;
7939;SDS011;4015;48.888;9.226;2023-12-29T06:08:50;1.10;;;0.80;;
7939;SDS011;4015;48.888;9.226;2023-12-29T06:11:15;1.25;;;1.15;;
7939;SDS011;4015;48.888;9.226;2023-12-29T06:13:41;0.90;;;0.90;;
7939;SDS011;4015;48.888;9.226;2023-12-29T06:16:07;1.23;;;0.93;;
7939;SDS011;4015;48.888;9.226;2023-12-29T06:18:32;1.10;;;1.00;;
7939;SDS011;4015;48.888;9.226;2023-12-29T06:20:57;1.05;;;0.95;;
7939;SDS011;4015;48.888;9.226;2023-12-29T06:23:23;0.95;;;0.95;;
7939;SDS011;4015;48.888;9.226;2023-12-29T06:25:50;1.00;;;0.88;;
7939;SDS011;4015;48.888;9.226;2023-12-29T06:28:16;1.10;;;1.00;;
7939;SDS011;4015;48.888;9.226;2023-12-29T06:30:41;0.90;;;0.90;;
7939;SDS011;4015;48.888;9.226;2023-12-29T06:33:06;1.20;;;0.80;;
7939;SDS011;4015;48.888;9.226;2023-12-29T06:35:32;1.00;;;0.90;;
7939;SDS011;4015;48.888;9.226;2023-12-29T06:37:58;0.82;;;0.82;;
7939;SDS011;4015;48.888;9.226;2023-12-29T06:40:24;1.27;;;1.08;;
7939;SDS011;4015;48.888;9.226;2023-12-29T06:42:49;1.65;;;0.90;;
7939;SDS011;4015;48.888;9.226;2023-12-29T06:45:15;0.70;;;0.70;;
7939;SDS011;4015;48.888;9.226;2023-12-29T06:47:40;1.00;;;1.00;;
7939;SDS011;4015;48.888;9.226;2023-12-29T06:50:06;1.08;;;1.02;;
7939;SDS011;4015;48.888;9.226;2023-12-29T06:52:32;1.08;;;0.90;;
7939;SDS011;4015;48.888;9.226;2023-12-29T06:55:01;0.80;;;0.80;;
7939;SDS011;4015;48.888;9.226;2023-12-29T06:57:26;0.90;;;0.90;;
7939;SDS011;4015;48.888;9.226;2023-12-29T06:59:52;1.10;;;1.00;;
7939;SDS011;4015;48.888;9.226;2023-12-29T07:02:17;0.80;;;0.80;;
7939;SDS011;4015;48.888;9.226;2023-12-29T07:04:42;0.80;;;0.80;;
7939;SDS011;4015;48.888;9.226;2023-12-29T07:07:08;0.80;;;0.80;;
7939;SDS011;4015;48.888;9.226;2023-12-29T07:09:33;1.20;;;1.10;;
7939;SDS011;4015;48.888;9.226;2023-12-29T07:11:58;0.93;;;0.90;;
7939;SDS011;4015;48.888;9.226;2023-12-29T07:14:24;1.10;;;1.00;;
7939;SDS011;4015;48.888;9.226;2023-12-29T07:16:49;1.15;;;1.05;;
7939;SDS011;4015;48.888;9.226;2023-12-29T07:19:14;0.73;;;0.73;;
7939;SDS011;4015;48.888;9.226;2023-12-29T07:21:40;0.90;;;0.90;;
7939;SDS011;4015;48.888;9.226;2023-12-29T07:24:05;1.00;;;0.90;;
7939;SDS011;4015;48.888;9.226;2023-12-29T07:26:32;0.90;;;0.80;;
7939;SDS011;4015;48.888;9.226;2023-12-29T07:28:59;0.75;;;0.75;;
7939;SDS011;4015;48.888;9.226;2023-12-29T07:31:24;0.98;;;0.80;;
7939;SDS011;4015;48.888;9.226;2023-12-29T07:33:49;0.90;;;0.90;;
7939;SDS011;4015;48.888;9.226;2023-12-29T07:36:16;1.00;;;0.90;;
7939;SDS011;4015;48.888;9.226;2023-12-29T07:38:41;0.95;;;0.90;;
7939;SDS011;4015;48.888;9.226;2023-12-29T07:41:07;0.93;;;0.90;;
7939;SDS011;4015;48.888;9.226;2023-12-29T07:43:33;1.20;;;1.10;;
7939;SDS011;4015;48.888;9.226;2023-12-29T07:46:00;1.10;;;1.00;;
7939;SDS011;4015;48.888;9.226;2023-12-29T07:48:26;0.70;;;0.70;;
7939;SDS011;4015;48.888;9.226;2023-12-29T07:50:51;1.00;;;0.90;;
7939;SDS011;4015;48.888;9.226;2023-12-29T07:53:17;0.80;;;0.80;;
7939;SDS011;4015;48.888;9.226;2023-12-29T07:55:42;1.55;;;1.02;;
7939;SDS011;4015;48.888;9.226;2023-12-29T07:58:08;0.90;;;0.90;;
7939;SDS011;4015;48.888;9.226;2023-12-29T08:00:35;0.70;;;0.70;;
7939;SDS011;4015;48.888;9.226;2023-12-29T08:03:01;1.10;;;1.00;;
7939;SDS011;4015;48.888;9.226;2023-12-29T08:05:26;1.00;;;0.90;;
7939;SDS011;4015;48.888;9.226;2023-12-29T08:07:51;0.93;;;0.93;;
7939;SDS011;4015;48.888;9.226;2023-12-29T08:10:17;0.90;;;0.90;;
7939;SDS011;4015;48.888;9.226;2023-12-29T08:12:42;1.10;;;1.00;;
7939;SDS011;4015;48.888;9.226;2023-12-29T08:15:07;0.70;;;0.70;;
7939;SDS011;4015;48.888;9.226;2023-12-29T08:17:33;1.38;;;0.90;;
7939;SDS011;4015;48.888;9.226;2023-12-29T08:19:58;0.90;;;0.90;;
7939;SDS011;4015;48.888;9.226;2023-12-29T08:22:24;1.13;;;1.02;;
7939;SDS011;4015;48.888;9.226;2023-12-29T08:24:49;1.05;;;0.95;;
7939;SDS011;4015;48.888;9.226;2023-12-29T08:27:14;0.90;;;0.90;;
7939;SDS011;4015;48.888;9.226;2023-12-29T08:29:48;0.95;;;0.93;;
7939;SDS011;4015;48.888;9.226;2023-12-29T08:32:13;0.80;;;0.80;;
7939;SDS011;4015;48.888;9.226;2023-12-29T08:34:38;0.85;;;0.85;;
7939;SDS011;4015;48.888;9.226;2023-12-29T08:37:04;0.80;;;0.80;;
7939;SDS011;4015;48.888;9.226;2023-12-29T08:39:29;0.90;;;0.88;;
7939;SDS011;4015;48.888;9.226;2023-12-29T08:41:55;0.70;;;0.70;;
7939;SDS011;4015;48.888;9.226;2023-12-29T08:44:20;0.80;;;0.80;;
7939;SDS011;4015;48.888;9.226;2023-12-29T08:46:46;2.10;;;1.10;;
7939;SDS011;4015;48.888;9.226;2023-12-29T08:49:11;0.90;;;0.90;;
7939;SDS011;4015;48.888;9.226;2023-12-29T08:51:36;1.20;;;1.10;;
7939;SDS011;4015;48.888;9.226;2023-12-29T08:54:01;0.95;;;0.85;;
7939;SDS011;4015;48.888;9.226;2023-12-29T08:56:27;0.93;;;0.93;;
7939;SDS011;4015;48.888;9.226;2023-12-29T08:58:54;1.15;;;1.05;;
7939;SDS011;4015;48.888;9.226;2023-12-29T09:01:19;1.42;;;1.30;;
7939;SDS011;4015;48.888;9.226;2023-12-29T09:03:45;1.20;;;1.10;;
7939;SDS011;4015;48.888;9.226;2023-12-29T09:06:10;1.40;;;1.30;;
7939;SDS011;4015;48.888;9.226;2023-12-29T09:08:36;1.10;;;1.00;;
7939;SDS011;4015;48.888;9.226;2023-12-29T09:11:01;1.10;;;1.00;;
7939;SDS011;4015;48.888;9.226;2023-12-29T09:13:27;1.48;;;1.30;;
7939;SDS011;4015;48.888;9.226;2023-12-29T09:15:53;1.20;;;1.10;;
7939;SDS011;4015;48.888;9.226;2023-12-29T09:18:22;1.25;;;1.02;;
7939;SDS011;4015;48.888;9.226;2023-12-29T09:20:47;1.15;;;1.00;;
7939;SDS011;4015;48.888;9.226;2023-12-29T09:23:13;1.35;;;1.25;;
7939;SDS011;4015;48.888;9.226;2023-12-29T09:25:38;1.40;;;1.30;;
7939;SDS011;4015;48.888;9.226;2023-12-29T09:28:05;1.45;;;1.30;;
7939;SDS011;4015;48.888;9.226;2023-12-29T09:30:30;1.30;;;1.20;;
7939;SDS011;4015;48.888;9.226;2023-12-29T09:32:55;1.58;;;1.48;;
7939;SDS011;4015;48.888;9.226;2023-12-29T09:35:21;1.40;;;1.30;;
7939;SDS011;4015;48.888;9.226;2023-12-29T09:37:49;1.55;;;1.33;;
7939;SDS011;4015;48.888;9.226;2023-12-29T09:40:14;1.85;;;1.40;;
7939;SDS011;4015;48.888;9.226;2023-12-29T09:42:40;1.30;;;1.20;;
7939;SDS011;4015;48.888;9.226;2023-12-29T09:45:10;1.60;;;1.48;;
7939;SDS011;4015;48.888;9.226;2023-12-29T09:47:40;1.50;;;1.40;;
7939;SDS011;4015;48.888;9.226;2023-12-29T09:50:11;1.35;;;1.08;;
7939;SDS011;4015;48.888;9.226;2023-12-29T09:52:38;1.65;;;1.42;;
7939;SDS011;4015;48.888;9.226;2023-12-29T09:55:04;1.67;;;1.38;;
7939;SDS011;4015;48.888;9.226;2023-12-29T09:57:32;1.38;;;1.27;;
7939;SDS011;4015;48.888;9.226;2023-12-29T09:59:58;1.70;;;1.33;;
7939;SDS011;4015;48.888;9.226;2023-12-29T10:02:23;1.70;;;1.50;;
7939;SDS011;4015;48.888;9.226;2023-12-29T10:04:49;1.23;;;1.13;;
7939;SDS011;4015;48.888;9.226;2023-12-29T10:07:24;2.17;;;1.73;;
7939;SDS011;4015;48.888;9.226;2023-12-29T10:09:57;1.67;;;1.58;;
7939;SDS011;4015;48.888;9.226;2023-12-29T10:12:24;1.77;;;1.60;;
7939;SDS011;4015;48.888;9.226;2023-12-29T10:25:39;1.90;;;1.50;;
7939;SDS011;4015;48.888;9.226;2023-12-29T10:28:09;1.75;;;1.55;;
7939;SDS011;4015;48.888;9.226;2023-12-29T10:30:35;2.17;;;1.80;;
7939;SDS011;4015;48.888;9.226;2023-12-29T10:33:01;1.42;;;1.33;;
7939;SDS011;4015;48.888;9.226;2023-12-29T10:35:29;1.95;;;1.60;;
7939;SDS011;4015;48.888;9.226;2023-12-29T10:37:54;1.77;;;1.55;;
7939;SDS011;4015;48.888;9.226;2023-12-29T10:40:33;1.77;;;1.60;;
7939;SDS011;4015;48.888;9.226;2023-12-29T10:42:58;2.33;;;2.13;;
7939;SDS011;4015;48.888;9.226;2023-12-29T10:45:26;1.52;;;1.42;;
7939;SDS011;4015;48.888;9.226;2023-12-29T10:47:51;1.60;;;1.48;;
7939;SDS011;4015;48.888;9.226;2023-12-29T10:50:16;2.80;;;1.67;;
7939;SDS011;4015;48.888;9.226;2023-12-29T10:52:42;1.98;;;1.73;;
7939;SDS011;4015;48.888;9.226;2023-12-29T10:55:08;2.28;;;1.77;;
7939;SDS011;4015;48.888;9.226;2023-12-29T10:57:36;1.58;;;1.45;;
7939;SDS011;4015;48.888;9.226;2023-12-29T11:00:02;1.85;;;1.67;;
7939;SDS011;4015;48.888;9.226;2023-12-29T11:02:32;2.35;;;1.80;;
7939;SDS011;4015;48.888;9.226;2023-12-29T11:05:02;1.63;;;1.45;;
7939;SDS011;4015;48.888;9.226;2023-12-29T11:07:47;2.28;;;1.95;;
7939;SDS011;4015;48.888;9.226;2023-12-29T11:10:12;1.98;;;1.80;;
7939;SDS011;4015;48.888;9.226;2023-12-29T11:12:38;1.40;;;1.30;;
7939;SDS011;4015;48.888;9.226;2023-12-29T11:15:04;2.40;;;1.80;;
7939;SDS011;4015;48.888;9.226;2023-12-29T11:17:31;2.42;;;2.00;;
7939;SDS011;4015;48.888;9.226;2023-12-29T11:19:58;1.80;;;1.58;;
7939;SDS011;4015;48.888;9.226;2023-12-29T11:22:27;1.80;;;1.60;;
7939;SDS011;4015;48.888;9.226;2023-12-29T11:24:54;2.00;;;1.77;;
7939;SDS011;4015;48.888;9.226;2023-12-29T11:27:19;1.98;;;1.77;;
7939;SDS011;4015;48.888;9.226;2023-12-29T11:29:46;1.80;;;1.38;;
7939;SDS011;4015;48.888;9.226;2023-12-29T11:32:12;2.35;;;2.15;;
7939;SDS011;4015;48.888;9.226;2023-12-29T11:34:45;1.77;;;1.60;;
7939;SDS011;4015;48.888;9.226;2023-12-29T11:39:45;1.77;;;1.42;;
7939;SDS011;4015;48.888;9.226;2023-12-29T11:42:19;2.55;;;1.52;;
7939;SDS011;4015;48.888;9.226;2023-12-29T11:44:48;1.95;;;1.75;;
7939;SDS011;4015;48.888;9.226;2023-12-29T11:50:02;1.80;;;1.48;;
7939;SDS011;4015;48.888;9.226;2023-12-29T11:52:35;1.90;;;1.67;;
7939;SDS011;4015;48.888;9.226;2023-12-29T11:55:08;2.40;;;1.67;;
7939;SDS011;4015;48.888;9.226;2023-12-29T11:57:34;2.00;;;1.73;;
7939;SDS011;4015;48.888;9.226;2023-12-29T12:00:01;2.25;;;1.88;;
7939;SDS011;4015;48.888;9.226;2023-12-29T12:02:27;2.15;;;1.73;;
7939;SDS011;4015;48.888;9.226;2023-12-29T12:04:53;1.95;;;1.70;;
7939;SDS011;4015;48.888;9.226;2023-12-29T12:09:48;1.92;;;1.73;;
7939;SDS011;4015;48.888;9.226;2023-12-29T12:12:38;1.90;;;1.70;;
7939;SDS011;4015;48.888;9.226;2023-12-29T12:20:22;2.22;;;1.88;;
7939;SDS011;4015;48.888;9.226;2023-12-29T12:23:01;1.60;;;1.42;;
7939;SDS011;4015;48.888;9.226;2023-12-29T12:25:30;1.50;;;1.40;;
7939;SDS011;4015;48.888;9.226;2023-12-29T12:27:59;2.17;;;1.70;;
7939;SDS011;4015;48.888;9.226;2023-12-29T12:30:26;1.80;;;1.70;;
7939;SDS011;4015;48.888;9.226;2023-12-29T12:32:57;2.55;;;1.95;;
7939;SDS011;4015;48.888;9.226;2023-12-29T12:35:24;1.60;;;1.48;;
7939;SDS011;4015;48.888;9.226;2023-12-29T12:38:08;1.80;;;1.67;;
7939;SDS011;4015;48.888;9.226;2023-12-29T12:40:36;1.70;;;1.38;;
7939;SDS011;4015;48.888;9.226;2023-12-29T12:43:03;2.13;;;1.80;;
7939;SDS011;4015;48.888;9.226;2023-12-29T12:45:29;2.00;;;1.80;;
7939;SDS011;4015;48.888;9.226;2023-12-29T12:48:13;2.15;;;1.60;;
7939;SDS011;4015;48.888;9.226;2023-12-29T12:50:45;1.60;;;1.45;;
7939;SDS011;4015;48.888;9.226;2023-12-29T12:53:12;1.92;;;1.70;;
7939;SDS011;4015;48.888;9.226;2023-12-29T12:55:45;1.70;;;1.60;;
7939;SDS011;4015;48.888;9.226;2023-12-29T12:58:12;2.08;;;1.88;;
7939;SDS011;4015;48.888;9.226;2023-12-29T13:00:39;1.70;;;1.58;;
7939;SDS011;4015;48.888;9.226;2023-12-29T13:03:04;1.80;;;1.70;;
7939;SDS011;4015;48.888;9.226;2023-12-29T13:05:30;1.98;;;1.70;;
7939;SDS011;4015;48.888;9.226;2023-12-29T13:07:55;1.98;;;1.77;;
7939;SDS011;4015;48.888;9.226;2023-12-29T13:10:21;1.90;;;1.70;;
7939;SDS011;4015;48.888;9.226;2023-12-29T13:12:53;2.03;;;1.83;;
7939;SDS011;4015;48.888;9.226;2023-12-29T13:15:19;1.73;;;1.52;;
7939;SDS011;4015;48.888;9.226;2023-12-29T13:17:54;1.63;;;1.52;;
7939;SDS011;4015;48.888;9.226;2023-12-29T13:20:20;2.50;;;1.58;;
7939;SDS011;4015;48.888;9.226;2023-12-29T13:22:49;1.40;;;1.30;;
7939;SDS011;4015;48.888;9.226;2023-12-29T13:25:18;1.73;;;1.58;;
7939;SDS011;4015;48.888;9.226;2023-12-29T13:27:50;1.80;;;1.70;;
7939;SDS011;4015;48.888;9.226;2023-12-29T13:30:16;1.92;;;1.67;;
7939;SDS011;4015;48.888;9.226;2023-12-29T13:32:44;1.73;;;1.58;;
7939;SDS011;4015;48.888;9.226;2023-12-29T13:35:34;1.63;;;1.45;;
7939;SDS011;4015;48.888;9.226;2023-12-29T13:38:09;1.50;;;1.40;;
7939;SDS011;4015;48.888;9.226;2023-12-29T13:43:19;1.75;;;1.60;;
7939;SDS011;4015;48.888;9.226;2023-12-29T13:45:46;1.63;;;1.52;;
7939;SDS011;4015;48.888;9.226;2023-12-29T13:48:12;1.50;;;1.40;;
7939;SDS011;4015;48.888;9.226;2023-12-29T13:50:39;1.77;;;1.60;;
7939;SDS011;4015;48.888;9.226;2023-12-29T13:53:06;1.85;;;1.60;;
7939;SDS011;4015;48.888;9.226;2023-12-29T13:55:31;1.52;;;1.42;;
7939;SDS011;4015;48.888;9.226;2023-12-29T13:57:56;2.10;;;1.90;;
7939;SDS011;4015;48.888;9.226;2023-12-29T14:00:22;1.58;;;1.48;;
7939;SDS011;4015;48.888;9.226;2023-12-29T14:05:31;1.42;;;1.33;;
7939;SDS011;4015;48.888;9.226;2023-12-29T14:08:18;1.98;;;1.80;;
7939;SDS011;4015;48.888;9.226;2023-12-29T14:10:49;1.65;;;1.55;;
7939;SDS011;4015;48.888;9.226;2023-12-29T14:13:15;1.60;;;1.40;;
7939;SDS011;4015;48.888;9.226;2023-12-29T14:15:43;1.70;;;1.60;;
7939;SDS011;4015;48.888;9.226;2023-12-29T14:20:37;1.63;;;1.50;;
7939;SDS011;4015;48.888;9.226;2023-12-29T14:23:04;1.67;;;1.38;;
7939;SDS011;4015;48.888;9.226;2023-12-29T14:25:30;2.95;;;1.50;;
7939;SDS011;4015;48.888;9.226;2023-12-29T14:28:00;1.88;;;1.60;;
7939;SDS011;4015;48.888;9.226;2023-12-29T14:30:26;1.90;;;1.60;;
7939;SDS011;4015;48.888;9.226;2023-12-29T14:32:53;1.60;;;1.50;;
7939;SDS011;4015;48.888;9.226;2023-12-29T14:35:19;1.40;;;1.30;;
7939;SDS011;4015;48.888;9.226;2023-12-29T14:37:44;1.55;;;1.40;;
7939;SDS011;4015;48.888;9.226;2023-12-29T14:40:12;1.60;;;1.25;;
7939;SDS011;4015;48.888;9.226;2023-12-29T14:42:37;1.48;;;1.33;;
7939;SDS011;4015;48.888;9.226;2023-12-29T14:45:05;1.88;;;1.48;;
7939;SDS011;4015;48.888;9.226;2023-12-29T14:47:32;1.55;;;1.45;;
7939;SDS011;4015;48.888;9.226;2023-12-29T14:49:58;1.95;;;1.42;;
7939;SDS011;4015;48.888;9.226;2023-12-29T14:52:24;2.15;;;1.70;;
7939;SDS011;4015;48.888;9.226;2023-12-29T14:54:49;1.38;;;1.27;;
7939;SDS011;4015;48.888;9.226;2023-12-29T14:57:14;1.55;;;1.45;;
7939;SDS011;4015;48.888;9.226;2023-12-29T14:59:40;1.50;;;1.27;;
7939;SDS011;4015;48.888;9.226;2023-12-29T15:02:05;1.88;;;1.27;;
7939;SDS011;4015;48.888;9.226;2023-12-29T15:04:32;1.60;;;1.40;;
7939;SDS011;4015;48.888;9.226;2023-12-29T15:06:58;1.60;;;1.50;;
7939;SDS011;4015;48.888;9.226;2023-12-29T15:09:23;1.70;;;1.42;;
7939;SDS011;4015;48.888;9.226;2023-12-29T15:11:49;2.05;;;1.48;;
7939;SDS011;4015;48.888;9.226;2023-12-29T15:14:17;1.52;;;1.42;;
7939;SDS011;4015;48.888;9.226;2023-12-29T15:16:43;1.30;;;1.20;;
7939;SDS011;4015;48.888;9.226;2023-12-29T15:19:08;1.67;;;1.42;;
7939;SDS011;4015;48.888;9.226;2023-12-29T15:21:34;1.33;;;1.23;;
7939;SDS011;4015;48.888;9.226;2023-12-29T15:23:59;1.60;;;1.50;;
7939;SDS011;4015;48.888;9.226;2023-12-29T15:26:24;1.52;;;1.42;;
7939;SDS011;4015;48.888;9.226;2023-12-29T15:28:50;1.90;;;1.15;;
7939;SDS011;4015;48.888;9.226;2023-12-29T15:31:15;1.42;;;1.20;;
7939;SDS011;4015;48.888;9.226;2023-12-29T15:33:41;1.55;;;1.30;;
7939;SDS011;4015;48.888;9.226;2023-12-29T15:36:11;1.45;;;1.20;;
7939;SDS011;4015;48.888;9.226;2023-12-29T15:38:37;1.20;;;1.10;;
7939;SDS011;4015;48.888;9.226;2023-12-29T15:41:02;1.30;;;1.20;;
7939;SDS011;4015;48.888;9.226;2023-12-29T15:43:28;1.30;;;1.20;;
7939;SDS011;4015;48.888;9.226;2023-12-29T15:45:54;1.27;;;1.17;;